sensor_id;sensor_type;location;lat;lon;timestamp;P1;durP1;ratioP1;P2;durP2;ratioP2
38262;SDS011;24054;50.128;19.730;2023-07-20T00:02:05;4.28;;;2.80;;
38262;SDS011;24054;50.128;19.730;2023-07-20T00:04:33;5.05;;;3.00;;
38262;SDS011;24054;50.128;19.730;2023-07-20T00:07:02;4.80;;;3.13;;
38262;SDS011;24054;50.128;19.730;2023-07-20T00:09:29;4.30;;;2.42;;
38262;SDS011;24054;50.128;19.730;2023-07-20T00:11:56;3.40;;;2.20;;
38262;SDS011;24054;50.128;19.730;2023-07-20T00:14:25;4.75;;;2.42;;
38262;SDS011;24054;50.128;19.730;2023-07-20T00:16:52;5.18;;;2.50;;
38262;SDS011;24054;50.128;19.730;2023-07-20T00:19:23;3.75;;;2.60;;
38262;SDS011;24054;50.128;19.730;2023-07-20T00:21:50;4.50;;;2.63;;
38262;SDS011;24054;50.128;19.730;2023-07-20T00:24:20;4.25;;;2.30;;
38262;SDS011;24054;50.128;19.730;2023-07-20T00:26:47;4.03;;;2.70;;
38262;SDS011;24054;50.128;19.730;2023-07-20T00:29:14;4.68;;;2.55;;
38262;SDS011;24054;50.128;19.730;2023-07-20T00:31:42;4.10;;;2.35;;
38262;SDS011;24054;50.128;19.730;2023-07-20T00:34:09;3.22;;;2.33;;
38262;SDS011;24054;50.128;19.730;2023-07-20T00:36:37;5.03;;;2.38;;
38262;SDS011;24054;50.128;19.730;2023-07-20T00:39:09;2.72;;;2.20;;
38262;SDS011;24054;50.128;19.730;2023-07-20T00:41:37;3.92;;;2.45;;
38262;SDS011;24054;50.128;19.730;2023-07-20T00:44:04;3.42;;;2.17;;
38262;SDS011;24054;50.128;19.730;2023-07-20T00:46:31;2.95;;;2.40;;
38262;SDS011;24054;50.128;19.730;2023-07-20T00:48:59;4.65;;;2.45;;
38262;SDS011;24054;50.128;19.730;2023-07-20T00:51:28;3.10;;;2.33;;
38262;SDS011;24054;50.128;19.730;2023-07-20T00:53:57;2.53;;;2.17;;
38262;SDS011;24054;50.128;19.730;2023-07-20T00:56:24;3.30;;;2.30;;
38262;SDS011;24054;50.128;19.730;2023-07-20T00:58:51;4.40;;;2.35;;
38262;SDS011;24054;50.128;19.730;2023-07-20T01:01:19;3.92;;;2.55;;
38262;SDS011;24054;50.128;19.730;2023-07-20T01:03:46;2.25;;;1.92;;
38262;SDS011;24054;50.128;19.730;2023-07-20T01:06:18;4.68;;;2.60;;
38262;SDS011;24054;50.128;19.730;2023-07-20T01:09:00;3.83;;;2.15;;
38262;SDS011;24054;50.128;19.730;2023-07-20T01:11:36;3.38;;;2.67;;
38262;SDS011;24054;50.128;19.730;2023-07-20T01:14:06;4.75;;;2.55;;
38262;SDS011;24054;50.128;19.730;2023-07-20T01:16:34;2.63;;;2.17;;
38262;SDS011;24054;50.128;19.730;2023-07-20T01:19:01;4.22;;;2.80;;
38262;SDS011;24054;50.128;19.730;2023-07-20T01:21:31;2.95;;;2.35;;
38262;SDS011;24054;50.128;19.730;2023-07-20T01:30:30;2.65;;;2.22;;
38262;SDS011;24054;50.128;19.730;2023-07-20T01:33:12;3.22;;;2.40;;
38262;SDS011;24054;50.128;19.730;2023-07-20T01:35:41;4.70;;;3.03;;
38262;SDS011;24054;50.128;19.730;2023-07-20T01:38:12;3.40;;;2.83;;
38262;SDS011;24054;50.128;19.730;2023-07-20T01:40:40;3.25;;;2.30;;
38262;SDS011;24054;50.128;19.730;2023-07-20T01:43:07;3.38;;;2.50;;
38262;SDS011;24054;50.128;19.730;2023-07-20T01:45:34;3.80;;;2.60;;
38262;SDS011;24054;50.128;19.730;2023-07-20T01:48:02;4.20;;;2.65;;
38262;SDS011;24054;50.128;19.730;2023-07-20T01:50:36;6.45;;;3.00;;
38262;SDS011;24054;50.128;19.730;2023-07-20T01:53:05;3.80;;;2.80;;
38262;SDS011;24054;50.128;19.730;2023-07-20T01:55:32;3.30;;;2.70;;
38262;SDS011;24054;50.128;19.730;2023-07-20T01:58:02;3.03;;;2.65;;
38262;SDS011;24054;50.128;19.730;2023-07-20T02:00:29;4.80;;;2.63;;
38262;SDS011;24054;50.128;19.730;2023-07-20T02:02:56;3.53;;;2.70;;
38262;SDS011;24054;50.128;19.730;2023-07-20T02:05:26;5.28;;;3.13;;
38262;SDS011;24054;50.128;19.730;2023-07-20T02:07:55;3.40;;;2.90;;
38262;SDS011;24054;50.128;19.730;2023-07-20T02:10:22;3.08;;;2.30;;
38262;SDS011;24054;50.128;19.730;2023-07-20T02:12:49;3.58;;;2.45;;
38262;SDS011;24054;50.128;19.730;2023-07-20T02:15:17;3.42;;;2.80;;
38262;SDS011;24054;50.128;19.730;2023-07-20T02:17:44;2.95;;;2.33;;
38262;SDS011;24054;50.128;19.730;2023-07-20T02:20:11;5.70;;;2.55;;
38262;SDS011;24054;50.128;19.730;2023-07-20T02:22:41;4.30;;;3.13;;
38262;SDS011;24054;50.128;19.730;2023-07-20T02:25:09;3.13;;;2.47;;
38262;SDS011;24054;50.128;19.730;2023-07-20T02:27:37;3.08;;;2.45;;
38262;SDS011;24054;50.128;19.730;2023-07-20T02:30:05;4.07;;;2.70;;
38262;SDS011;24054;50.128;19.730;2023-07-20T02:32:36;3.17;;;2.78;;
38262;SDS011;24054;50.128;19.730;2023-07-20T02:35:05;4.38;;;2.80;;
38262;SDS011;24054;50.128;19.730;2023-07-20T02:37:32;2.67;;;2.42;;
38262;SDS011;24054;50.128;19.730;2023-07-20T02:39:59;4.40;;;2.83;;
38262;SDS011;24054;50.128;19.730;2023-07-20T02:42:31;4.32;;;2.63;;
38262;SDS011;24054;50.128;19.730;2023-07-20T02:45:01;3.20;;;2.63;;
38262;SDS011;24054;50.128;19.730;2023-07-20T02:47:29;5.07;;;3.15;;
38262;SDS011;24054;50.128;19.730;2023-07-20T02:49:56;3.42;;;2.78;;
38262;SDS011;24054;50.128;19.730;2023-07-20T02:52:23;4.50;;;2.92;;
38262;SDS011;24054;50.128;19.730;2023-07-20T02:54:50;2.88;;;2.45;;
38262;SDS011;24054;50.128;19.730;2023-07-20T02:57:17;3.53;;;2.47;;
38262;SDS011;24054;50.128;19.730;2023-07-20T02:59:46;3.63;;;3.15;;
38262;SDS011;24054;50.128;19.730;2023-07-20T03:02:13;4.55;;;2.72;;
38262;SDS011;24054;50.128;19.730;2023-07-20T03:04:40;3.95;;;2.80;;
38262;SDS011;24054;50.128;19.730;2023-07-20T03:07:07;3.50;;;2.63;;
38262;SDS011;24054;50.128;19.730;2023-07-20T03:09:34;4.57;;;2.80;;
38262;SDS011;24054;50.128;19.730;2023-07-20T03:12:01;4.97;;;2.90;;
38262;SDS011;24054;50.128;19.730;2023-07-20T03:14:31;4.45;;;2.95;;
38262;SDS011;24054;50.128;19.730;2023-07-20T03:16:59;4.05;;;2.63;;
38262;SDS011;24054;50.128;19.730;2023-07-20T03:19:26;3.45;;;2.50;;
38262;SDS011;24054;50.128;19.730;2023-07-20T03:21:53;3.65;;;2.53;;
38262;SDS011;24054;50.128;19.730;2023-07-20T03:24:20;3.10;;;2.60;;
38262;SDS011;24054;50.128;19.730;2023-07-20T03:26:48;3.80;;;2.75;;
38262;SDS011;24054;50.128;19.730;2023-07-20T03:29:15;4.63;;;2.95;;
38262;SDS011;24054;50.128;19.730;2023-07-20T03:31:45;3.58;;;2.40;;
38262;SDS011;24054;50.128;19.730;2023-07-20T03:34:14;3.03;;;2.47;;
38262;SDS011;24054;50.128;19.730;2023-07-20T03:39:10;3.78;;;2.58;;
38262;SDS011;24054;50.128;19.730;2023-07-20T03:41:37;2.90;;;2.22;;
38262;SDS011;24054;50.128;19.730;2023-07-20T03:44:04;3.22;;;2.45;;
38262;SDS011;24054;50.128;19.730;2023-07-20T03:46:31;4.18;;;2.88;;
38262;SDS011;24054;50.128;19.730;2023-07-20T03:48:59;5.82;;;2.85;;
38262;SDS011;24054;50.128;19.730;2023-07-20T03:51:27;3.75;;;2.90;;
38262;SDS011;24054;50.128;19.730;2023-07-20T03:53:54;3.17;;;2.58;;
38262;SDS011;24054;50.128;19.730;2023-07-20T03:56:21;3.53;;;2.53;;
38262;SDS011;24054;50.128;19.730;2023-07-20T03:58:49;3.55;;;2.67;;
38262;SDS011;24054;50.128;19.730;2023-07-20T04:01:16;3.45;;;2.45;;
38262;SDS011;24054;50.128;19.730;2023-07-20T04:03:43;2.97;;;2.58;;
38262;SDS011;24054;50.128;19.730;2023-07-20T04:06:10;3.13;;;2.08;;
38262;SDS011;24054;50.128;19.730;2023-07-20T04:08:40;2.63;;;2.38;;
38262;SDS011;24054;50.128;19.730;2023-07-20T04:11:07;2.80;;;2.22;;
38262;SDS011;24054;50.128;19.730;2023-07-20T04:13:34;3.63;;;2.47;;
38262;SDS011;24054;50.128;19.730;2023-07-20T04:16:01;2.72;;;2.33;;
38262;SDS011;24054;50.128;19.730;2023-07-20T04:18:28;2.80;;;2.47;;
38262;SDS011;24054;50.128;19.730;2023-07-20T04:20:55;3.53;;;2.80;;
38262;SDS011;24054;50.128;19.730;2023-07-20T04:23:25;2.70;;;2.22;;
38262;SDS011;24054;50.128;19.730;2023-07-20T04:25:56;2.83;;;2.38;;
38262;SDS011;24054;50.128;19.730;2023-07-20T04:28:23;3.40;;;2.17;;
38262;SDS011;24054;50.128;19.730;2023-07-20T04:30:52;4.28;;;2.72;;
38262;SDS011;24054;50.128;19.730;2023-07-20T04:33:20;3.67;;;2.42;;
38262;SDS011;24054;50.128;19.730;2023-07-20T04:35:48;4.30;;;2.67;;
38262;SDS011;24054;50.128;19.730;2023-07-20T04:38:15;3.08;;;2.42;;
38262;SDS011;24054;50.128;19.730;2023-07-20T04:40:44;2.83;;;2.30;;
38262;SDS011;24054;50.128;19.730;2023-07-20T04:43:12;2.30;;;2.10;;
38262;SDS011;24054;50.128;19.730;2023-07-20T04:45:39;2.75;;;2.50;;
38262;SDS011;24054;50.128;19.730;2023-07-20T04:48:07;3.05;;;2.35;;
38262;SDS011;24054;50.128;19.730;2023-07-20T04:50:36;3.92;;;2.30;;
38262;SDS011;24054;50.128;19.730;2023-07-20T04:53:06;4.50;;;2.42;;
38262;SDS011;24054;50.128;19.730;2023-07-20T04:55:33;3.17;;;2.40;;
38262;SDS011;24054;50.128;19.730;2023-07-20T04:58:01;3.20;;;1.98;;
38262;SDS011;24054;50.128;19.730;2023-07-20T05:00:31;3.73;;;2.33;;
38262;SDS011;24054;50.128;19.730;2023-07-20T05:02:59;3.63;;;2.70;;
38262;SDS011;24054;50.128;19.730;2023-07-20T05:05:26;4.22;;;2.38;;
38262;SDS011;24054;50.128;19.730;2023-07-20T05:07:53;3.70;;;2.30;;
38262;SDS011;24054;50.128;19.730;2023-07-20T05:10:20;3.47;;;1.92;;
38262;SDS011;24054;50.128;19.730;2023-07-20T05:12:47;3.45;;;2.67;;
38262;SDS011;24054;50.128;19.730;2023-07-20T05:15:14;3.55;;;2.58;;
38262;SDS011;24054;50.128;19.730;2023-07-20T05:17:46;2.40;;;2.10;;
38262;SDS011;24054;50.128;19.730;2023-07-20T05:20:15;2.53;;;2.17;;
38262;SDS011;24054;50.128;19.730;2023-07-20T05:22:42;2.60;;;2.03;;
38262;SDS011;24054;50.128;19.730;2023-07-20T05:25:10;2.70;;;2.28;;
38262;SDS011;24054;50.128;19.730;2023-07-20T05:27:39;3.30;;;2.42;;
38262;SDS011;24054;50.128;19.730;2023-07-20T05:30:06;3.17;;;2.35;;
38262;SDS011;24054;50.128;19.730;2023-07-20T05:32:34;3.13;;;2.00;;
38262;SDS011;24054;50.128;19.730;2023-07-20T05:35:02;2.10;;;1.90;;
38262;SDS011;24054;50.128;19.730;2023-07-20T05:37:30;4.57;;;2.28;;
38262;SDS011;24054;50.128;19.730;2023-07-20T05:39:57;2.60;;;2.13;;
38262;SDS011;24054;50.128;19.730;2023-07-20T05:42:24;3.00;;;2.20;;
38262;SDS011;24054;50.128;19.730;2023-07-20T05:44:51;3.38;;;1.90;;
38262;SDS011;24054;50.128;19.730;2023-07-20T05:47:19;2.42;;;1.90;;
38262;SDS011;24054;50.128;19.730;2023-07-20T05:49:46;5.10;;;2.00;;
38262;SDS011;24054;50.128;19.730;2023-07-20T05:52:15;2.60;;;2.08;;
38262;SDS011;24054;50.128;19.730;2023-07-20T05:54:42;2.33;;;1.95;;
38262;SDS011;24054;50.128;19.730;2023-07-20T05:57:11;2.90;;;1.95;;
38262;SDS011;24054;50.128;19.730;2023-07-20T05:59:38;2.60;;;2.10;;
38262;SDS011;24054;50.128;19.730;2023-07-20T06:02:09;2.10;;;1.85;;
38262;SDS011;24054;50.128;19.730;2023-07-20T06:04:36;2.33;;;1.90;;
38262;SDS011;24054;50.128;19.730;2023-07-20T06:07:03;3.13;;;1.95;;
38262;SDS011;24054;50.128;19.730;2023-07-20T06:09:31;3.00;;;2.20;;
38262;SDS011;24054;50.128;19.730;2023-07-20T06:11:58;2.47;;;2.10;;
38262;SDS011;24054;50.128;19.730;2023-07-20T06:14:25;2.55;;;2.10;;
38262;SDS011;24054;50.128;19.730;2023-07-20T06:16:52;3.35;;;2.33;;
38262;SDS011;24054;50.128;19.730;2023-07-20T06:19:23;5.93;;;2.63;;
38262;SDS011;24054;50.128;19.730;2023-07-20T06:21:50;4.57;;;2.35;;
38262;SDS011;24054;50.128;19.730;2023-07-20T06:24:17;4.85;;;2.50;;
38262;SDS011;24054;50.128;19.730;2023-07-20T06:26:46;2.85;;;2.20;;
38262;SDS011;24054;50.128;19.730;2023-07-20T06:29:13;3.10;;;2.13;;
38262;SDS011;24054;50.128;19.730;2023-07-20T06:31:40;2.33;;;1.85;;
38262;SDS011;24054;50.128;19.730;2023-07-20T06:34:07;4.95;;;2.20;;
38262;SDS011;24054;50.128;19.730;2023-07-20T06:36:34;3.78;;;2.03;;
38262;SDS011;24054;50.128;19.730;2023-07-20T06:39:00;5.80;;;2.20;;
38262;SDS011;24054;50.128;19.730;2023-07-20T06:41:28;5.72;;;2.60;;
38262;SDS011;24054;50.128;19.730;2023-07-20T06:43:56;4.45;;;2.47;;
38262;SDS011;24054;50.128;19.730;2023-07-20T06:46:24;3.25;;;1.95;;
38262;SDS011;24054;50.128;19.730;2023-07-20T06:48:51;3.67;;;2.03;;
38262;SDS011;24054;50.128;19.730;2023-07-20T06:51:19;3.90;;;2.47;;
38262;SDS011;24054;50.128;19.730;2023-07-20T06:53:49;3.10;;;2.60;;
38262;SDS011;24054;50.128;19.730;2023-07-20T06:56:16;4.10;;;2.10;;
38262;SDS011;24054;50.128;19.730;2023-07-20T06:58:43;4.22;;;2.33;;
38262;SDS011;24054;50.128;19.730;2023-07-20T07:01:13;3.30;;;2.10;;
38262;SDS011;24054;50.128;19.730;2023-07-20T07:03:40;6.22;;;2.70;;
38262;SDS011;24054;50.128;19.730;2023-07-20T07:06:10;3.20;;;1.98;;
38262;SDS011;24054;50.128;19.730;2023-07-20T07:08:37;8.48;;;2.40;;
38262;SDS011;24054;50.128;19.730;2023-07-20T07:11:04;5.90;;;2.22;;
38262;SDS011;24054;50.128;19.730;2023-07-20T07:13:31;3.78;;;1.98;;
38262;SDS011;24054;50.128;19.730;2023-07-20T07:15:58;4.35;;;2.10;;
38262;SDS011;24054;50.128;19.730;2023-07-20T07:18:26;5.28;;;2.22;;
38262;SDS011;24054;50.128;19.730;2023-07-20T07:20:53;3.33;;;2.05;;
38262;SDS011;24054;50.128;19.730;2023-07-20T07:23:20;5.45;;;2.17;;
38262;SDS011;24054;50.128;19.730;2023-07-20T07:25:50;5.18;;;2.53;;
38262;SDS011;24054;50.128;19.730;2023-07-20T07:28:19;6.32;;;3.05;;
38262;SDS011;24054;50.128;19.730;2023-07-20T07:30:48;4.15;;;2.58;;
38262;SDS011;24054;50.128;19.730;2023-07-20T07:33:17;4.93;;;2.47;;
38262;SDS011;24054;50.128;19.730;2023-07-20T07:35:46;4.65;;;2.28;;
38262;SDS011;24054;50.128;19.730;2023-07-20T07:38:13;6.00;;;2.72;;
38262;SDS011;24054;50.128;19.730;2023-07-20T07:40:40;3.72;;;1.85;;
38262;SDS011;24054;50.128;19.730;2023-07-20T07:43:08;7.05;;;2.55;;
38262;SDS011;24054;50.128;19.730;2023-07-20T07:45:35;6.28;;;2.67;;
38262;SDS011;24054;50.128;19.730;2023-07-20T07:48:04;3.72;;;1.77;;
38262;SDS011;24054;50.128;19.730;2023-07-20T07:50:32;5.22;;;2.20;;
38262;SDS011;24054;50.128;19.730;2023-07-20T07:53:03;3.60;;;2.00;;
38262;SDS011;24054;50.128;19.730;2023-07-20T07:55:30;5.75;;;2.35;;
38262;SDS011;24054;50.128;19.730;2023-07-20T07:57:57;3.88;;;2.40;;
38262;SDS011;24054;50.128;19.730;2023-07-20T08:00:28;3.47;;;2.30;;
38262;SDS011;24054;50.128;19.730;2023-07-20T08:02:55;2.35;;;1.90;;
38262;SDS011;24054;50.128;19.730;2023-07-20T08:05:24;2.83;;;1.70;;
38262;SDS011;24054;50.128;19.730;2023-07-20T08:07:51;2.08;;;1.80;;
38262;SDS011;24054;50.128;19.730;2023-07-20T08:10:21;3.30;;;2.08;;
38262;SDS011;24054;50.128;19.730;2023-07-20T08:12:51;2.65;;;1.70;;
38262;SDS011;24054;50.128;19.730;2023-07-20T08:15:23;3.55;;;1.80;;
38262;SDS011;24054;50.128;19.730;2023-07-20T08:17:50;2.38;;;1.88;;
38262;SDS011;24054;50.128;19.730;2023-07-20T08:20:19;2.38;;;1.77;;
38262;SDS011;24054;50.128;19.730;2023-07-20T08:22:51;3.92;;;1.98;;
38262;SDS011;24054;50.128;19.730;2023-07-20T08:25:21;2.58;;;1.98;;
38262;SDS011;24054;50.128;19.730;2023-07-20T08:27:50;2.30;;;1.60;;
38262;SDS011;24054;50.128;19.730;2023-07-20T08:30:20;2.22;;;1.67;;
38262;SDS011;24054;50.128;19.730;2023-07-20T08:32:52;3.85;;;1.65;;
38262;SDS011;24054;50.128;19.730;2023-07-20T08:35:26;4.32;;;1.45;;
38262;SDS011;24054;50.128;19.730;2023-07-20T08:37:53;3.92;;;1.30;;
38262;SDS011;24054;50.128;19.730;2023-07-20T08:40:21;2.97;;;1.45;;
38262;SDS011;24054;50.128;19.730;2023-07-20T08:42:50;4.13;;;1.70;;
38262;SDS011;24054;50.128;19.730;2023-07-20T08:45:19;2.50;;;1.73;;
38262;SDS011;24054;50.128;19.730;2023-07-20T08:47:48;2.55;;;1.60;;
38262;SDS011;24054;50.128;19.730;2023-07-20T08:50:19;2.22;;;1.75;;
38262;SDS011;24054;50.128;19.730;2023-07-20T08:52:50;1.98;;;1.52;;
38262;SDS011;24054;50.128;19.730;2023-07-20T08:55:24;1.48;;;1.38;;
38262;SDS011;24054;50.128;19.730;2023-07-20T08:57:52;3.78;;;1.75;;
38262;SDS011;24054;50.128;19.730;2023-07-20T09:00:21;2.40;;;1.77;;
38262;SDS011;24054;50.128;19.730;2023-07-20T09:02:50;3.10;;;1.50;;
38262;SDS011;24054;50.128;19.730;2023-07-20T09:05:21;2.05;;;1.50;;
38262;SDS011;24054;50.128;19.730;2023-07-20T09:10:17;1.70;;;1.50;;
38262;SDS011;24054;50.128;19.730;2023-07-20T09:12:47;2.33;;;1.40;;
38262;SDS011;24054;50.128;19.730;2023-07-20T09:15:14;2.13;;;1.48;;
38262;SDS011;24054;50.128;19.730;2023-07-20T09:17:45;1.73;;;1.40;;
38262;SDS011;24054;50.128;19.730;2023-07-20T09:20:19;2.60;;;1.42;;
38262;SDS011;24054;50.128;19.730;2023-07-20T09:22:47;2.25;;;1.40;;
38262;SDS011;24054;50.128;19.730;2023-07-20T09:25:15;3.50;;;1.60;;
38262;SDS011;24054;50.128;19.730;2023-07-20T09:27:45;2.15;;;1.38;;
38262;SDS011;24054;50.128;19.730;2023-07-20T09:30:15;1.67;;;1.35;;
38262;SDS011;24054;50.128;19.730;2023-07-20T09:32:43;1.52;;;1.23;;
38262;SDS011;24054;50.128;19.730;2023-07-20T09:35:15;1.92;;;1.48;;
38262;SDS011;24054;50.128;19.730;2023-07-20T09:37:48;2.33;;;1.40;;
38262;SDS011;24054;50.128;19.730;2023-07-20T09:40:17;3.30;;;1.42;;
38262;SDS011;24054;50.128;19.730;2023-07-20T09:42:49;1.67;;;1.40;;
38262;SDS011;24054;50.128;19.730;2023-07-20T09:45:27;2.05;;;1.50;;
38262;SDS011;24054;50.128;19.730;2023-07-20T09:48:03;2.42;;;1.80;;
38262;SDS011;24054;50.128;19.730;2023-07-20T09:50:30;1.88;;;1.30;;
38262;SDS011;24054;50.128;19.730;2023-07-20T09:53:00;2.03;;;1.48;;
38262;SDS011;24054;50.128;19.730;2023-07-20T09:55:30;1.70;;;1.20;;
38262;SDS011;24054;50.128;19.730;2023-07-20T09:58:00;1.65;;;1.30;;
38262;SDS011;24054;50.128;19.730;2023-07-20T10:00:29;2.33;;;1.55;;
38262;SDS011;24054;50.128;19.730;2023-07-20T10:02:56;3.08;;;1.45;;
38262;SDS011;24054;50.128;19.730;2023-07-20T10:05:32;2.35;;;1.45;;
38262;SDS011;24054;50.128;19.730;2023-07-20T10:08:03;1.98;;;1.33;;
38262;SDS011;24054;50.128;19.730;2023-07-20T10:10:32;3.50;;;1.38;;
38262;SDS011;24054;50.128;19.730;2023-07-20T10:13:01;2.60;;;1.45;;
38262;SDS011;24054;50.128;19.730;2023-07-20T10:15:33;2.47;;;1.20;;
38262;SDS011;24054;50.128;19.730;2023-07-20T10:18:12;1.63;;;1.23;;
38262;SDS011;24054;50.128;19.730;2023-07-20T10:20:42;1.98;;;1.10;;
38262;SDS011;24054;50.128;19.730;2023-07-20T10:25:38;1.50;;;1.40;;
38262;SDS011;24054;50.128;19.730;2023-07-20T10:28:09;2.28;;;1.58;;
38262;SDS011;24054;50.128;19.730;2023-07-20T10:30:37;1.98;;;1.45;;
38262;SDS011;24054;50.128;19.730;2023-07-20T10:33:07;2.28;;;1.70;;
38262;SDS011;24054;50.128;19.730;2023-07-20T10:35:50;1.90;;;1.48;;
38262;SDS011;24054;50.128;19.730;2023-07-20T10:38:17;2.40;;;1.65;;
38262;SDS011;24054;50.128;19.730;2023-07-20T10:40:53;2.08;;;1.63;;
38262;SDS011;24054;50.128;19.730;2023-07-20T10:43:22;2.97;;;1.88;;
38262;SDS011;24054;50.128;19.730;2023-07-20T10:45:51;2.83;;;1.77;;
38262;SDS011;24054;50.128;19.730;2023-07-20T10:48:19;2.58;;;1.70;;
38262;SDS011;24054;50.128;19.730;2023-07-20T10:51:08;2.95;;;1.95;;
38262;SDS011;24054;50.128;19.730;2023-07-20T10:53:36;2.35;;;1.75;;
38262;SDS011;24054;50.128;19.730;2023-07-20T10:56:07;2.15;;;1.83;;
38262;SDS011;24054;50.128;19.730;2023-07-20T10:58:38;4.68;;;2.33;;
38262;SDS011;24054;50.128;19.730;2023-07-20T11:01:06;3.22;;;2.10;;
38262;SDS011;24054;50.128;19.730;2023-07-20T11:03:33;2.30;;;1.85;;
38262;SDS011;24054;50.128;19.730;2023-07-20T11:09:03;2.92;;;2.20;;
38262;SDS011;24054;50.128;19.730;2023-07-20T11:11:38;2.75;;;2.42;;
38262;SDS011;24054;50.128;19.730;2023-07-20T11:14:07;2.55;;;2.33;;
38262;SDS011;24054;50.128;19.730;2023-07-20T11:16:39;3.58;;;2.17;;
38262;SDS011;24054;50.128;19.730;2023-07-20T11:19:14;2.72;;;2.40;;
38262;SDS011;24054;50.128;19.730;2023-07-20T11:21:44;3.40;;;3.08;;
38262;SDS011;24054;50.128;19.730;2023-07-20T11:24:12;3.90;;;2.67;;
38262;SDS011;24054;50.128;19.730;2023-07-20T11:26:43;3.60;;;2.55;;
38262;SDS011;24054;50.128;19.730;2023-07-20T11:31:40;3.13;;;2.67;;
38262;SDS011;24054;50.128;19.730;2023-07-20T11:34:10;2.80;;;2.55;;
38262;SDS011;24054;50.128;19.730;2023-07-20T11:36:40;3.90;;;2.70;;
38262;SDS011;24054;50.128;19.730;2023-07-20T11:39:08;4.20;;;3.17;;
38262;SDS011;24054;50.128;19.730;2023-07-20T11:41:35;4.83;;;3.33;;
38262;SDS011;24054;50.128;19.730;2023-07-20T11:44:03;4.35;;;3.47;;
38262;SDS011;24054;50.128;19.730;2023-07-20T11:46:32;5.40;;;3.45;;
38262;SDS011;24054;50.128;19.730;2023-07-20T11:49:01;5.07;;;4.18;;
38262;SDS011;24054;50.128;19.730;2023-07-20T11:51:28;5.00;;;4.00;;
38262;SDS011;24054;50.128;19.730;2023-07-20T11:53:56;6.60;;;3.30;;
38262;SDS011;24054;50.128;19.730;2023-07-20T11:56:24;3.75;;;3.38;;
38262;SDS011;24054;50.128;19.730;2023-07-20T11:58:54;6.18;;;3.42;;
38262;SDS011;24054;50.128;19.730;2023-07-20T12:01:24;6.70;;;3.00;;
38262;SDS011;24054;50.128;19.730;2023-07-20T12:03:59;3.88;;;2.90;;
38262;SDS011;24054;50.128;19.730;2023-07-20T12:06:31;5.10;;;2.63;;
38262;SDS011;24054;50.128;19.730;2023-07-20T12:08:59;4.00;;;2.67;;
38262;SDS011;24054;50.128;19.730;2023-07-20T12:11:30;4.33;;;2.90;;
38262;SDS011;24054;50.128;19.730;2023-07-20T12:13:58;3.03;;;2.72;;
38262;SDS011;24054;50.128;19.730;2023-07-20T12:16:26;3.25;;;2.90;;
38262;SDS011;24054;50.128;19.730;2023-07-20T12:19:00;3.13;;;2.33;;
38262;SDS011;24054;50.128;19.730;2023-07-20T12:21:31;2.83;;;2.35;;
38262;SDS011;24054;50.128;19.730;2023-07-20T12:24:00;3.78;;;2.40;;
38262;SDS011;24054;50.128;19.730;2023-07-20T12:26:30;4.97;;;2.85;;
38262;SDS011;24054;50.128;19.730;2023-07-20T12:29:00;3.85;;;2.92;;
38262;SDS011;24054;50.128;19.730;2023-07-20T12:31:28;5.22;;;2.50;;
38262;SDS011;24054;50.128;19.730;2023-07-20T12:34:04;5.15;;;2.67;;
38262;SDS011;24054;50.128;19.730;2023-07-20T12:36:33;4.15;;;2.50;;
38262;SDS011;24054;50.128;19.730;2023-07-20T12:39:00;3.58;;;2.50;;
38262;SDS011;24054;50.128;19.730;2023-07-20T12:41:30;2.50;;;2.10;;
38262;SDS011;24054;50.128;19.730;2023-07-20T12:44:00;3.95;;;2.55;;
38262;SDS011;24054;50.128;19.730;2023-07-20T12:46:30;2.90;;;2.45;;
38262;SDS011;24054;50.128;19.730;2023-07-20T12:49:06;2.80;;;2.17;;
38262;SDS011;24054;50.128;19.730;2023-07-20T12:51:36;2.65;;;2.40;;
38262;SDS011;24054;50.128;19.730;2023-07-20T12:54:03;3.30;;;2.30;;
38262;SDS011;24054;50.128;19.730;2023-07-20T12:56:33;4.05;;;2.20;;
38262;SDS011;24054;50.128;19.730;2023-07-20T12:59:00;2.90;;;2.30;;
38262;SDS011;24054;50.128;19.730;2023-07-20T13:01:28;3.80;;;1.93;;
38262;SDS011;24054;50.128;19.730;2023-07-20T13:03:55;4.03;;;2.30;;
38262;SDS011;24054;50.128;19.730;2023-07-20T13:06:23;5.07;;;2.42;;
38262;SDS011;24054;50.128;19.730;2023-07-20T13:08:51;2.63;;;2.40;;
38262;SDS011;24054;50.128;19.730;2023-07-20T13:11:20;3.78;;;2.40;;
38262;SDS011;24054;50.128;19.730;2023-07-20T13:13:48;3.13;;;1.90;;
38262;SDS011;24054;50.128;19.730;2023-07-20T13:16:14;2.20;;;2.00;;
38262;SDS011;24054;50.128;19.730;2023-07-20T13:18:42;2.50;;;2.05;;
38262;SDS011;24054;50.128;19.730;2023-07-20T13:21:13;2.63;;;2.15;;
38262;SDS011;24054;50.128;19.730;2023-07-20T13:23:48;2.60;;;2.17;;
38262;SDS011;24054;50.128;19.730;2023-07-20T13:26:18;2.55;;;1.92;;
38262;SDS011;24054;50.128;19.730;2023-07-20T13:28:45;3.20;;;2.90;;
38262;SDS011;24054;50.128;19.730;2023-07-20T13:31:12;9.60;;;2.00;;
38262;SDS011;24054;50.128;19.730;2023-07-20T13:33:39;1.75;;;1.65;;
38262;SDS011;24054;50.128;19.730;2023-07-20T13:36:08;2.17;;;1.73;;
38262;SDS011;24054;50.128;19.730;2023-07-20T13:38:36;3.42;;;1.77;;
38262;SDS011;24054;50.128;19.730;2023-07-20T13:41:06;2.20;;;2.00;;
38262;SDS011;24054;50.128;19.730;2023-07-20T13:43:35;1.88;;;1.75;;
38262;SDS011;24054;50.128;19.730;2023-07-20T13:46:04;2.90;;;1.80;;
38262;SDS011;24054;50.128;19.730;2023-07-20T13:48:31;1.77;;;1.67;;
38262;SDS011;24054;50.128;19.730;2023-07-20T13:51:00;4.65;;;1.80;;
38262;SDS011;24054;50.128;19.730;2023-07-20T13:53:27;2.40;;;1.45;;
38262;SDS011;24054;50.128;19.730;2023-07-20T13:55:55;1.80;;;1.70;;
38262;SDS011;24054;50.128;19.730;2023-07-20T13:58:24;1.65;;;1.55;;
38262;SDS011;24054;50.128;19.730;2023-07-20T14:00:51;1.50;;;1.40;;
38262;SDS011;24054;50.128;19.730;2023-07-20T14:03:20;2.17;;;1.70;;
38262;SDS011;24054;50.128;19.730;2023-07-20T14:05:47;2.72;;;1.90;;
38262;SDS011;24054;50.128;19.730;2023-07-20T14:08:14;2.00;;;1.70;;
38262;SDS011;24054;50.128;19.730;2023-07-20T14:10:42;1.45;;;1.35;;
38262;SDS011;24054;50.128;19.730;2023-07-20T14:13:09;1.70;;;1.58;;
38262;SDS011;24054;50.128;19.730;2023-07-20T14:15:38;1.80;;;1.55;;
38262;SDS011;24054;50.128;19.730;2023-07-20T14:18:05;3.72;;;1.40;;
38262;SDS011;24054;50.128;19.730;2023-07-20T14:20:32;5.95;;;1.67;;
38262;SDS011;24054;50.128;19.730;2023-07-20T14:23:00;2.20;;;1.77;;
38262;SDS011;24054;50.128;19.730;2023-07-20T14:25:27;8.15;;;2.08;;
38262;SDS011;24054;50.128;19.730;2023-07-20T14:28:05;3.08;;;1.60;;
38262;SDS011;24054;50.128;19.730;2023-07-20T14:30:32;4.05;;;1.65;;
38262;SDS011;24054;50.128;19.730;2023-07-20T14:33:00;2.55;;;1.73;;
38262;SDS011;24054;50.128;19.730;2023-07-20T14:35:30;3.13;;;2.17;;
38262;SDS011;24054;50.128;19.730;2023-07-20T14:37:59;2.55;;;1.90;;
38262;SDS011;24054;50.128;19.730;2023-07-20T14:40:26;3.25;;;1.92;;
38262;SDS011;24054;50.128;19.730;2023-07-20T14:42:54;4.35;;;2.10;;
38262;SDS011;24054;50.128;19.730;2023-07-20T14:45:24;2.58;;;1.50;;
38262;SDS011;24054;50.128;19.730;2023-07-20T14:47:53;3.83;;;1.65;;
38262;SDS011;24054;50.128;19.730;2023-07-20T14:50:25;5.07;;;1.85;;
38262;SDS011;24054;50.128;19.730;2023-07-20T14:52:52;4.07;;;1.77;;
38262;SDS011;24054;50.128;19.730;2023-07-20T14:55:19;1.50;;;1.30;;
38262;SDS011;24054;50.128;19.730;2023-07-20T14:57:50;1.92;;;1.27;;
38262;SDS011;24054;50.128;19.730;2023-07-20T15:00:17;1.50;;;1.23;;
38262;SDS011;24054;50.128;19.730;2023-07-20T15:02:46;5.47;;;1.40;;